createdAt,value
2018-02-02T00:01:20.030Z,2.23
2018-02-02T00:03:47.549Z,2.40
2018-02-02T00:06:15.108Z,2.30
2018-02-02T00:08:42.685Z,2.63
2018-02-02T00:11:10.238Z,2.00
2018-02-02T00:13:37.776Z,2.20
2018-02-02T00:16:05.398Z,2.53
2018-02-02T00:18:32.922Z,2.17
2018-02-02T00:21:00.501Z,2.00
2018-02-02T00:23:28.113Z,2.07
2018-02-02T00:25:56.485Z,1.80
2018-02-02T00:28:24.833Z,2.30
2018-02-02T00:30:52.396Z,1.83
2018-02-02T00:33:20.032Z,2.23
2018-02-02T00:35:47.590Z,1.97
2018-02-02T00:38:15.143Z,2.00
2018-02-02T00:40:42.709Z,2.07
2018-02-02T00:43:10.313Z,2.10
2018-02-02T00:45:37.889Z,1.77
2018-02-02T00:48:05.425Z,1.90
2018-02-02T00:50:38.561Z,2.27
2018-02-02T00:53:06.116Z,2.00
2018-02-02T00:55:33.698Z,2.13
2018-02-02T00:58:01.281Z,2.00
2018-02-02T01:00:28.821Z,2.20
2018-02-02T01:02:56.380Z,2.30
2018-02-02T01:05:23.913Z,2.40
2018-02-02T01:07:51.486Z,2.70
2018-02-02T01:10:19.881Z,2.10
2018-02-02T01:12:47.449Z,2.43
2018-02-02T01:15:15.355Z,2.10
2018-02-02T01:17:42.909Z,2.40
2018-02-02T01:20:10.435Z,2.53
2018-02-02T01:22:38.005Z,2.20
2018-02-02T01:25:05.521Z,2.33
2018-02-02T01:27:33.109Z,2.20
2018-02-02T01:30:00.868Z,2.20
2018-02-02T01:32:28.445Z,2.50
2018-02-02T01:34:56.012Z,2.10
2018-02-02T01:37:23.573Z,2.40
2018-02-02T01:39:51.113Z,2.20
2018-02-02T01:42:18.704Z,2.30
2018-02-02T01:44:46.248Z,2.57
2018-02-02T01:47:13.798Z,2.70
2018-02-02T01:49:41.391Z,2.93
2018-02-02T01:52:08.958Z,2.83
2018-02-02T01:54:36.528Z,3.00
2018-02-02T01:57:04.085Z,3.03
2018-02-02T01:59:32.384Z,2.90
2018-02-02T02:01:59.944Z,3.00
2018-02-02T02:04:28.242Z,2.60
2018-02-02T02:06:55.817Z,2.50
2018-02-02T02:09:23.411Z,2.67
2018-02-02T02:11:50.966Z,2.90
2018-02-02T02:14:18.490Z,2.80
2018-02-02T02:16:46.050Z,2.97
2018-02-02T02:19:13.610Z,2.83
2018-02-02T02:21:41.170Z,2.53
2018-02-02T02:24:09.229Z,2.73
2018-02-02T02:26:36.841Z,2.73
2018-02-02T02:29:04.397Z,2.50
2018-02-02T02:31:31.930Z,2.50
2018-02-02T02:33:59.469Z,2.97
2018-02-02T02:36:27.029Z,3.10
2018-02-02T02:38:54.602Z,2.73
2018-02-02T02:41:22.160Z,2.67
2018-02-02T02:43:49.698Z,3.40
2018-02-02T02:46:17.272Z,2.43
2018-02-02T02:48:44.909Z,2.80
2018-02-02T02:51:12.440Z,3.10
2018-02-02T02:53:40.003Z,3.37
2018-02-02T02:56:07.560Z,2.73
2018-02-02T02:58:35.119Z,2.83
2018-02-02T03:01:02.636Z,2.50
2018-02-02T03:03:30.264Z,3.10
2018-02-02T03:05:57.795Z,3.00
2018-02-02T03:08:25.351Z,3.37
2018-02-02T03:10:52.871Z,3.20
2018-02-02T03:13:20.384Z,3.30
2018-02-02T03:15:47.995Z,3.20
2018-02-02T03:18:15.511Z,2.97
2018-02-02T03:20:43.056Z,2.80
2018-02-02T03:23:10.575Z,2.80
2018-02-02T03:25:38.115Z,3.10
2018-02-02T03:28:05.678Z,2.70
2018-02-02T03:30:33.196Z,3.30
2018-02-02T03:33:00.808Z,3.10
2018-02-02T03:35:28.423Z,3.17
2018-02-02T03:37:55.931Z,2.93
2018-02-02T03:40:23.484Z,3.20
2018-02-02T03:42:51.038Z,3.70
2018-02-02T03:45:18.583Z,3.67
2018-02-02T03:47:46.135Z,3.20
2018-02-02T03:50:14.431Z,3.03
2018-02-02T03:52:42.007Z,3.67
2018-02-02T03:55:09.603Z,3.50
2018-02-02T03:57:37.174Z,3.30
2018-02-02T04:00:05.501Z,3.40
2018-02-02T04:02:33.020Z,2.60
2018-02-02T04:05:01.330Z,3.50
2018-02-02T04:07:28.840Z,3.70
2018-02-02T04:09:57.171Z,2.97
2018-02-02T04:12:24.705Z,2.97
2018-02-02T04:14:52.254Z,3.20
2018-02-02T04:17:19.866Z,3.13
2018-02-02T04:19:47.439Z,3.30
2018-02-02T04:22:14.984Z,3.57
2018-02-02T04:24:42.540Z,3.27
2018-02-02T04:27:10.113Z,3.27
2018-02-02T04:29:37.680Z,3.33
2018-02-02T04:32:05.283Z,2.93
2018-02-02T04:34:33.583Z,3.80
2018-02-02T04:37:01.143Z,3.77
2018-02-02T04:39:28.686Z,3.80
2018-02-02T04:41:56.256Z,3.70
2018-02-02T04:44:23.773Z,3.40
2018-02-02T04:46:51.319Z,3.20
2018-02-02T04:49:18.839Z,3.43
2018-02-02T04:51:46.401Z,4.10
2018-02-02T04:54:13.943Z,3.80
2018-02-02T04:56:41.483Z,3.33
2018-02-02T04:59:09.034Z,3.33
2018-02-02T05:01:36.551Z,3.93
2018-02-02T05:04:04.095Z,4.60
2018-02-02T05:06:31.656Z,5.13
2018-02-02T05:08:59.211Z,4.30
2018-02-02T05:11:26.775Z,4.27
2018-02-02T05:13:54.288Z,4.43
2018-02-02T05:16:21.849Z,4.20
2018-02-02T05:18:49.410Z,4.20
2018-02-02T05:21:17.750Z,3.83
2018-02-02T05:23:45.263Z,5.37
2018-02-02T05:26:13.602Z,3.83
2018-02-02T05:28:41.133Z,4.33
2018-02-02T05:31:08.687Z,4.03
2018-02-02T05:33:36.220Z,3.93
2018-02-02T05:36:03.846Z,4.43
2018-02-02T05:38:31.343Z,4.37
2018-02-02T05:40:58.924Z,7.77
2018-02-02T05:43:26.485Z,4.73
2018-02-02T05:45:54.021Z,4.30
2018-02-02T05:48:21.607Z,4.20
2018-02-02T05:50:49.147Z,3.73
2018-02-02T05:53:17.428Z,4.20
2018-02-02T05:55:44.975Z,4.00
2018-02-02T05:58:13.292Z,3.50
2018-02-02T06:00:40.817Z,3.50
2018-02-02T06:03:08.376Z,3.73
2018-02-02T06:05:35.930Z,4.27
2018-02-02T06:08:03.439Z,3.80
2018-02-02T06:10:31.056Z,4.17
2018-02-02T06:12:58.609Z,4.70
2018-02-02T06:15:26.176Z,4.03
2018-02-02T06:17:53.795Z,4.60
2018-02-02T06:20:21.301Z,4.20
2018-02-02T06:22:48.857Z,5.13
2018-02-02T06:25:16.415Z,4.93
2018-02-02T06:27:44.006Z,4.80
2018-02-02T06:30:11.573Z,4.50
2018-02-02T06:32:39.132Z,4.87
2018-02-02T06:35:06.651Z,5.77
2018-02-02T06:37:34.183Z,6.07
2018-02-02T06:40:01.741Z,5.17
2018-02-02T06:42:29.267Z,5.17
2018-02-02T06:44:56.784Z,5.40
2018-02-02T06:47:24.337Z,4.77
2018-02-02T06:49:52.747Z,4.70
2018-02-02T06:52:20.292Z,4.90
2018-02-02T06:54:47.848Z,4.53
2018-02-02T06:57:15.398Z,5.47
2018-02-02T06:59:43.744Z,4.90
2018-02-02T07:02:11.303Z,4.80
2018-02-02T07:04:38.861Z,5.47
2018-02-02T07:07:06.407Z,6.47
2018-02-02T07:09:33.963Z,4.47
2018-02-02T07:12:01.540Z,6.03
2018-02-02T07:14:29.164Z,4.97
2018-02-02T07:16:56.707Z,4.97
2018-02-02T07:19:24.260Z,5.47
2018-02-02T07:21:51.794Z,6.10
2018-02-02T07:24:19.344Z,9.37
2018-02-02T07:26:46.938Z,6.20
2018-02-02T07:29:14.520Z,4.93
2018-02-02T07:31:42.102Z,6.43
2018-02-02T07:34:09.623Z,5.57
2018-02-02T07:36:37.203Z,4.97
2018-02-02T07:39:04.847Z,5.60
2018-02-02T07:41:32.780Z,7.10
2018-02-02T07:44:00.303Z,6.20
2018-02-02T07:46:27.843Z,5.23
2018-02-02T07:48:55.472Z,4.47
2018-02-02T07:51:23.027Z,4.60
2018-02-02T07:53:51.385Z,5.03
2018-02-02T07:56:18.909Z,4.70
2018-02-02T07:58:46.444Z,5.53
2018-02-02T08:01:19.760Z,7.20
2018-02-02T08:03:47.427Z,5.97
2018-02-02T08:06:14.966Z,5.10
2018-02-02T08:08:42.571Z,5.97
2018-02-02T08:11:10.227Z,4.57
2018-02-02T08:13:37.829Z,3.87
2018-02-02T08:16:05.459Z,3.37
2018-02-02T08:18:33.172Z,7.23
2018-02-02T08:21:00.753Z,7.17
2018-02-02T08:23:28.317Z,4.87
2018-02-02T08:25:55.947Z,4.33
2018-02-02T08:28:23.643Z,5.60
2018-02-02T08:30:51.285Z,6.30
2018-02-02T08:33:19.048Z,4.40
2018-02-02T08:35:46.600Z,3.80
2018-02-02T08:38:14.268Z,3.70
2018-02-02T08:40:41.843Z,2.43
2018-02-02T08:43:09.868Z,2.80
2018-02-02T08:45:37.608Z,2.50
2018-02-02T08:48:05.186Z,2.80
2018-02-02T08:50:32.868Z,2.93
2018-02-02T08:53:01.703Z,2.80
2018-02-02T08:55:29.223Z,3.17
2018-02-02T08:57:56.796Z,3.50
2018-02-02T09:00:24.378Z,2.70
2018-02-02T09:02:52.272Z,3.27
2018-02-02T09:05:19.944Z,2.77
2018-02-02T09:07:47.504Z,2.90
2018-02-02T09:10:15.094Z,2.27
2018-02-02T09:12:42.637Z,2.90
2018-02-02T09:15:10.381Z,3.33
2018-02-02T09:17:38.020Z,2.90
2018-02-02T09:20:05.600Z,2.20
2018-02-02T09:22:33.138Z,2.80
2018-02-02T09:25:00.680Z,2.70
2018-02-02T09:27:27.810Z,2.43
2018-02-02T09:29:56.211Z,2.40
2018-02-02T09:32:23.877Z,2.10
2018-02-02T09:34:51.415Z,2.87
2018-02-02T09:37:19.003Z,2.73
2018-02-02T09:39:46.671Z,2.80
2018-02-02T09:42:14.322Z,3.60
2018-02-02T09:44:41.858Z,3.07
2018-02-02T09:47:10.207Z,2.90
2018-02-02T09:49:38.538Z,3.27
2018-02-02T09:52:06.143Z,2.50
2018-02-02T09:54:33.671Z,2.97
2018-02-02T09:57:01.301Z,2.70
2018-02-02T09:59:28.861Z,2.83
2018-02-02T10:01:56.432Z,2.30
2018-02-02T10:04:24.013Z,2.63
2018-02-02T10:06:51.542Z,2.30
2018-02-02T10:09:19.121Z,2.33
2018-02-02T10:11:47.916Z,2.20
2018-02-02T10:14:15.638Z,2.30
2018-02-02T10:16:44.056Z,2.60
2018-02-02T10:19:11.648Z,2.53
2018-02-02T10:21:39.208Z,2.40
2018-02-02T10:24:06.835Z,2.60
2018-02-02T10:26:34.392Z,1.90
2018-02-02T10:29:01.959Z,2.13
2018-02-02T10:31:29.547Z,2.27
2018-02-02T10:33:57.303Z,2.20
2018-02-02T10:36:24.948Z,2.43
2018-02-02T10:38:52.578Z,1.87
2018-02-02T10:41:20.117Z,2.00
2018-02-02T10:43:48.239Z,2.10
2018-02-02T10:46:15.803Z,1.90
2018-02-02T10:48:43.408Z,2.13
2018-02-02T10:51:11.020Z,2.30
2018-02-02T10:53:38.896Z,2.17
2018-02-02T10:56:06.455Z,2.70
2018-02-02T10:58:33.974Z,2.20
2018-02-02T11:01:07.082Z,2.30
2018-02-02T11:03:40.192Z,2.20
2018-02-02T11:06:07.760Z,2.10
2018-02-02T11:08:35.320Z,1.90
2018-02-02T11:11:02.907Z,1.87
2018-02-02T11:13:30.528Z,2.30
2018-02-02T11:15:58.124Z,1.80
2018-02-02T11:18:25.699Z,2.10
2018-02-02T11:20:53.218Z,2.30
2018-02-02T11:23:20.888Z,1.73
2018-02-02T11:25:48.403Z,1.77
2018-02-02T11:28:16.033Z,2.70
2018-02-02T11:30:43.618Z,2.40
2018-02-02T11:33:11.435Z,2.13
2018-02-02T11:35:39.931Z,2.50
2018-02-02T11:38:07.523Z,2.47
2018-02-02T11:40:35.074Z,1.93
2018-02-02T11:43:03.435Z,1.90
2018-02-02T11:45:31.236Z,2.70
2018-02-02T11:47:59.184Z,2.00
2018-02-02T11:50:26.825Z,2.07
2018-02-02T11:52:54.424Z,2.00
2018-02-02T11:55:22.296Z,3.10
2018-02-02T11:57:49.831Z,2.03
2018-02-02T12:00:17.428Z,2.33
2018-02-02T12:02:45.892Z,2.10
2018-02-02T12:05:13.432Z,2.20
2018-02-02T12:07:40.994Z,2.40
2018-02-02T12:10:08.737Z,3.90
2018-02-02T12:12:36.286Z,2.90
2018-02-02T12:15:04.051Z,3.10
2018-02-02T12:17:31.655Z,3.07
2018-02-02T12:19:59.378Z,2.20
2018-02-02T12:25:38.493Z,2.73
2018-02-02T12:28:23.752Z,2.80
2018-02-02T12:30:54.067Z,2.00
2018-02-02T12:33:25.244Z,2.20
2018-02-02T12:35:53.713Z,2.47
2018-02-02T12:38:21.247Z,2.50
2018-02-02T12:40:49.566Z,2.70
2018-02-02T12:43:17.102Z,2.20
2018-02-02T12:45:44.683Z,3.07
2018-02-02T12:48:18.079Z,2.93
2018-02-02T12:50:57.478Z,2.93
2018-02-02T12:53:25.044Z,2.50
2018-02-02T12:55:52.578Z,1.90
2018-02-02T12:58:20.132Z,2.37
2018-02-02T13:00:47.691Z,2.20
2018-02-02T13:03:15.251Z,2.33
2018-02-02T13:05:43.945Z,2.20
2018-02-02T13:08:11.623Z,2.20
2018-02-02T13:10:40.085Z,2.53
2018-02-02T13:13:07.631Z,2.60
2018-02-02T13:15:35.214Z,2.93
2018-02-02T13:18:03.636Z,2.30
2018-02-02T13:20:31.224Z,2.30
2018-02-02T13:22:58.857Z,2.53
2018-02-02T13:25:26.470Z,2.50
2018-02-02T13:27:54.031Z,2.50
2018-02-02T13:30:21.604Z,2.17
2018-02-02T13:32:50.729Z,2.67
2018-02-02T13:35:18.305Z,2.27
2018-02-02T13:37:45.831Z,3.13
2018-02-02T13:40:13.363Z,2.33
2018-02-02T13:42:40.978Z,2.03
2018-02-02T13:45:08.562Z,2.47
2018-02-02T13:47:36.388Z,2.90
2018-02-02T13:50:04.105Z,2.17
2018-02-02T13:52:31.670Z,2.27
2018-02-02T13:55:00.292Z,2.50
2018-02-02T13:57:27.869Z,2.53
2018-02-02T13:59:55.509Z,3.23
2018-02-02T14:02:23.158Z,2.57
2018-02-02T14:04:51.622Z,2.87
2018-02-02T14:07:19.385Z,2.47
2018-02-02T14:09:47.068Z,2.77
2018-02-02T14:12:14.923Z,2.67
2018-02-02T14:14:43.249Z,2.90
2018-02-02T14:17:10.816Z,2.10
2018-02-02T14:19:38.687Z,2.30
2018-02-02T14:22:06.288Z,2.43
2018-02-02T14:24:33.833Z,2.50
2018-02-02T14:27:01.401Z,2.87
2018-02-02T14:29:28.927Z,2.20
2018-02-02T14:31:57.315Z,2.40
2018-02-02T14:34:24.906Z,2.23
2018-02-02T14:36:53.207Z,2.80
2018-02-02T14:39:20.748Z,2.57
2018-02-02T14:41:49.335Z,2.23
2018-02-02T14:44:16.956Z,2.50
2018-02-02T14:46:44.534Z,2.67
2018-02-02T14:49:12.376Z,2.40
2018-02-02T14:51:39.975Z,2.47
2018-02-02T14:54:08.268Z,2.70
2018-02-02T14:56:36.583Z,2.40
2018-02-02T14:59:04.149Z,2.70
2018-02-02T15:01:31.748Z,2.40
2018-02-02T15:03:59.341Z,3.30
2018-02-02T15:06:26.859Z,2.93
2018-02-02T15:08:54.436Z,2.63
2018-02-02T15:11:21.987Z,2.80
2018-02-02T15:13:49.603Z,3.27
2018-02-02T15:16:18.042Z,2.70
2018-02-02T15:18:45.614Z,2.37
2018-02-02T15:21:14.084Z,3.17
2018-02-02T15:23:42.387Z,2.10
2018-02-02T15:26:10.022Z,2.50
2018-02-02T15:28:37.613Z,3.07
2018-02-02T15:31:05.141Z,2.10
2018-02-02T15:33:32.765Z,2.40
2018-02-02T15:36:00.412Z,2.23
2018-02-02T15:38:28.315Z,2.30
2018-02-02T15:40:55.941Z,2.30
2018-02-02T15:43:23.471Z,2.33
2018-02-02T15:45:52.402Z,2.10
2018-02-02T15:48:20.270Z,2.30
2018-02-02T15:50:47.811Z,2.97
2018-02-02T15:53:15.382Z,2.83
2018-02-02T15:55:43.039Z,2.80
2018-02-02T15:58:10.625Z,3.33
2018-02-02T16:00:38.168Z,3.27
2018-02-02T16:03:05.730Z,3.10
2018-02-02T16:05:33.318Z,3.47
2018-02-02T16:08:00.910Z,2.90
2018-02-02T16:10:28.481Z,2.33
2018-02-02T16:12:56.045Z,2.77
2018-02-02T16:15:24.065Z,2.60
2018-02-02T16:17:51.634Z,2.50
2018-02-02T16:20:20.138Z,2.60
2018-02-02T16:22:47.673Z,2.80
2018-02-02T16:25:15.244Z,2.20
2018-02-02T16:27:43.008Z,3.10
2018-02-02T16:30:10.663Z,2.23
2018-02-02T16:32:38.319Z,2.20
2018-02-02T16:35:05.894Z,2.90
2018-02-02T16:37:33.422Z,2.57
2018-02-02T16:40:00.980Z,2.50
2018-02-02T16:42:28.576Z,2.40
2018-02-02T16:44:56.123Z,2.43
2018-02-02T16:47:24.454Z,2.90
2018-02-02T16:49:52.066Z,3.40
2018-02-02T16:52:20.351Z,3.40
2018-02-02T16:54:48.735Z,2.77
2018-02-02T16:57:16.313Z,2.93
2018-02-02T16:59:43.888Z,2.63
2018-02-02T17:02:11.514Z,2.60
2018-02-02T17:04:39.081Z,2.87
2018-02-02T17:07:06.697Z,3.00
2018-02-02T17:09:34.235Z,3.30
2018-02-02T17:12:01.793Z,3.23
2018-02-02T17:14:29.318Z,3.70
2018-02-02T17:16:57.730Z,3.97
2018-02-02T17:19:25.259Z,3.50
2018-02-02T17:21:52.842Z,3.83
2018-02-02T17:24:20.374Z,3.77
2018-02-02T17:26:48.007Z,3.73
2018-02-02T17:29:15.523Z,4.60
2018-02-02T17:31:43.097Z,5.07
2018-02-02T17:34:10.655Z,4.30
2018-02-02T17:36:38.203Z,5.30
2018-02-02T17:39:05.775Z,4.27
2018-02-02T17:41:33.344Z,4.10
2018-02-02T17:44:00.900Z,4.60
2018-02-02T17:46:28.416Z,4.60
2018-02-02T17:48:55.989Z,4.70
2018-02-02T17:51:23.524Z,3.50
2018-02-02T17:53:51.063Z,3.57
2018-02-02T17:56:18.950Z,3.77
2018-02-02T17:58:46.513Z,3.13
2018-02-02T18:04:16.182Z,3.43
2018-02-02T18:06:44.388Z,4.50
2018-02-02T18:09:12.049Z,3.80
2018-02-02T18:11:39.593Z,3.83
2018-02-02T18:14:07.164Z,3.80
2018-02-02T18:16:34.688Z,4.67
2018-02-02T18:19:02.244Z,3.97
2018-02-02T18:21:29.842Z,4.00
2018-02-02T18:23:57.397Z,3.60
2018-02-02T18:26:25.022Z,3.03
2018-02-02T18:28:52.595Z,3.57
2018-02-02T18:31:20.118Z,4.17
2018-02-02T18:33:48.477Z,3.90
2018-02-02T18:36:16.801Z,3.10
2018-02-02T18:38:44.404Z,3.90
2018-02-02T18:41:11.996Z,4.03
2018-02-02T18:43:39.523Z,3.57
2018-02-02T18:46:07.080Z,3.40
2018-02-02T18:48:34.628Z,3.93
2018-02-02T18:51:02.201Z,3.33
2018-02-02T18:53:29.797Z,3.50
2018-02-02T18:55:58.125Z,4.23
2018-02-02T18:58:25.701Z,3.97
2018-02-02T19:00:53.984Z,3.73
2018-02-02T19:03:21.536Z,3.50
2018-02-02T19:05:49.108Z,4.57
2018-02-02T19:08:17.435Z,4.37
2018-02-02T19:10:45.039Z,3.90
2018-02-02T19:13:12.573Z,4.20
2018-02-02T19:15:40.239Z,4.20
2018-02-02T19:18:07.795Z,4.37
2018-02-02T19:20:36.184Z,4.07
2018-02-02T19:23:03.790Z,4.17
2018-02-02T19:25:32.163Z,4.20
2018-02-02T19:28:00.499Z,4.43
2018-02-02T19:30:28.121Z,5.10
2018-02-02T19:32:55.697Z,5.03
2018-02-02T19:35:23.258Z,4.07
2018-02-02T19:37:50.847Z,4.70
2018-02-02T19:40:18.403Z,4.50
2018-02-02T19:42:46.006Z,4.37
2018-02-02T19:45:14.387Z,4.77
2018-02-02T19:47:41.973Z,5.40
2018-02-02T19:50:09.599Z,5.10
2018-02-02T19:52:37.975Z,4.87
2018-02-02T19:55:05.721Z,4.93
2018-02-02T19:57:33.353Z,3.70
2018-02-02T20:00:00.938Z,4.73
2018-02-02T20:02:28.559Z,5.80
2018-02-02T20:04:56.240Z,4.67
2018-02-02T20:07:23.852Z,4.30
2018-02-02T20:09:52.272Z,4.80
2018-02-02T20:12:19.836Z,5.70
2018-02-02T20:14:47.412Z,5.90
2018-02-02T20:17:14.958Z,5.53
2018-02-02T20:19:42.711Z,5.53
2018-02-02T20:22:10.372Z,6.33
2018-02-02T20:24:38.015Z,6.20
2018-02-02T20:27:05.612Z,5.90
2018-02-02T20:29:33.224Z,5.37
2018-02-02T20:32:00.981Z,4.43
2018-02-02T20:34:28.564Z,5.63
2018-02-02T20:36:56.084Z,5.40
2018-02-02T20:39:24.392Z,5.27
2018-02-02T20:41:52.052Z,4.87
2018-02-02T20:44:19.592Z,4.77
2018-02-02T20:46:47.140Z,4.67
2018-02-02T20:49:14.787Z,4.57
2018-02-02T20:51:43.357Z,5.50
2018-02-02T20:54:10.956Z,6.57
2018-02-02T20:56:38.507Z,5.70
2018-02-02T20:59:06.071Z,6.07
2018-02-02T21:01:33.639Z,5.57
2018-02-02T21:04:01.515Z,4.60
2018-02-02T21:06:29.154Z,5.20
2018-02-02T21:08:56.766Z,4.80
2018-02-02T21:11:24.294Z,5.37
2018-02-02T21:13:52.620Z,4.43
2018-02-02T21:16:20.144Z,4.40
2018-02-02T21:18:47.670Z,4.20
2018-02-02T21:21:15.274Z,5.80
2018-02-02T21:23:43.599Z,5.50
2018-02-02T21:26:11.237Z,5.73
2018-02-02T21:28:38.848Z,4.63
2018-02-02T21:31:07.195Z,4.07
2018-02-02T21:33:34.816Z,4.40
2018-02-02T21:36:02.391Z,5.30
2018-02-02T21:38:29.895Z,5.30
2018-02-02T21:40:58.280Z,4.37
2018-02-02T21:43:26.665Z,4.27
2018-02-02T21:45:55.012Z,4.37
2018-02-02T21:48:22.622Z,4.40
2018-02-02T21:50:50.143Z,5.00
2018-02-02T21:53:18.567Z,4.50
2018-02-02T21:55:46.159Z,4.63
2018-02-02T21:58:14.220Z,4.40
2018-02-02T22:00:42.588Z,3.90
2018-02-02T22:03:10.182Z,4.50
2018-02-02T22:05:37.743Z,3.87
2018-02-02T22:08:05.282Z,6.50
2018-02-02T22:10:32.807Z,5.40
2018-02-02T22:13:00.322Z,4.87
2018-02-02T22:15:27.878Z,4.47
2018-02-02T22:17:55.416Z,4.83
2018-02-02T22:20:23.024Z,4.37
2018-02-02T22:22:50.910Z,4.90
2018-02-02T22:25:18.586Z,7.00
2018-02-02T22:27:46.214Z,8.90
2018-02-02T22:30:13.780Z,7.80
2018-02-02T22:32:41.355Z,4.47
2018-02-02T22:35:08.929Z,4.40
2018-02-02T22:37:36.523Z,5.90
2018-02-02T22:40:04.178Z,4.47
2018-02-02T22:42:31.705Z,5.10
2018-02-02T22:44:59.325Z,4.47
2018-02-02T22:47:26.852Z,4.80
2018-02-02T22:49:54.397Z,4.83
2018-02-02T22:52:22.005Z,4.30
2018-02-02T22:54:49.519Z,4.80
2018-02-02T22:57:17.044Z,5.10
2018-02-02T22:59:44.634Z,4.33
2018-02-02T23:02:12.227Z,4.23
2018-02-02T23:04:39.887Z,4.73
2018-02-02T23:07:07.471Z,4.53
2018-02-02T23:09:35.056Z,5.80
2018-02-02T23:12:03.391Z,4.80
2018-02-02T23:14:30.907Z,4.47
2018-02-02T23:16:59.237Z,3.80
2018-02-02T23:19:26.755Z,4.77
2018-02-02T23:21:55.071Z,4.77
2018-02-02T23:24:22.690Z,4.23
2018-02-02T23:26:50.259Z,4.77
2018-02-02T23:29:17.853Z,4.43
2018-02-02T23:31:45.458Z,4.93
2018-02-02T23:34:13.000Z,4.20
2018-02-02T23:36:40.624Z,4.70
2018-02-02T23:39:08.182Z,4.40
2018-02-02T23:41:35.711Z,4.73
2018-02-02T23:44:04.022Z,4.60
2018-02-02T23:46:31.592Z,4.27
2018-02-02T23:48:59.160Z,4.53
2018-02-02T23:51:26.723Z,4.47
2018-02-02T23:53:54.273Z,4.60
2018-02-02T23:56:21.790Z,4.60
2018-02-02T23:58:49.326Z,3.90
